Terminal Aerodrome Forecast
Issued by NWS

Home | Current Version | Previous Version | Graphics & Text | Print | Product List | Glossary On
Versions: 1 2 3 4 5 6 7 8 9 10 11 12 13 14 15 16 17 18 19 20
000
FTUS43 KBIS 280500 AAA
TAFJMS
TAF AMD
KJMS 280558Z 2806/2906 17008KT 1/2SM FG OVC002
      TEMPO 2810/2814 1SM BR
     FM281400 VRB03KT 1SM BR BKN006
     FM281800 32011KT P6SM SCT007 BKN035
     FM282000 33020G27KT P6SM VCSH BKN008 OVC015
     FM290000 33022G33KT P6SM -SHSN OVC012=

USA.gov is the U.S. government's official web portal to all federal, state and local government web resources and services.